Time;durP1;ratioP1;P1;durP2;ratioP2;P2;SDS_P1;SDS_P2;PMS_P1;PMS_P2;Temp;Humidity;BMP_temperature;BMP_pressure;BME280_temperature;BME280_humidity;BME280_pressure;Samples;Min_cycle;Max_cycle;Signal;HPM_P1;HPM_P2
2021/08/25 00:01:45;;;;;;;9.32;6.88;;;16.10;91.10;;;;;;5094541;28;20035;-53
2021/08/25 00:04:11;;;;;;;12.02;7.78;;;16.10;90.90;;;;;;5094846;28;20032;-54
2021/08/25 00:06:37;;;;;;;11.75;8.00;;;16.00;91.00;;;;;;5095083;28;20041;-50
2021/08/25 00:09:03;;;;;;;10.02;6.85;;;15.90;91.20;;;;;;5095506;28;20028;-51
2021/08/25 00:11:29;;;;;;;11.25;6.85;;;15.90;91.20;;;;;;5095877;28;20036;-52
2021/08/25 00:13:55;;;;;;;9.77;6.18;;;15.80;91.40;;;;;;5095858;28;20676;-48
2021/08/25 00:16:20;;;;;;;11.18;7.22;;;15.70;91.60;;;;;;5095405;28;20028;-52
2021/08/25 00:18:46;;;;;;;25.20;16.20;;;15.50;92.10;;;;;;5096269;28;20029;-53
2021/08/25 00:21:12;;;;;;;50.05;29.58;;;15.30;92.60;;;;;;5095821;28;20036;-50
2021/08/25 00:23:37;;;;;;;48.20;28.90;;;15.20;92.80;;;;;;5096475;28;20119;-52
2021/08/25 00:26:03;;;;;;;17.05;9.57;;;15.10;93.20;;;;;;5095639;28;20454;-50
2021/08/25 00:28:29;;;;;;;11.77;8.10;;;15.20;93.20;;;;;;5095401;28;20028;-50
2021/08/25 00:30:54;;;;;;;13.63;8.60;;;15.20;93.10;;;;;;5094941;28;20411;-53
2021/08/25 00:33:20;;;;;;;13.35;8.88;;;15.20;93.60;;;;;;5077339;28;20077;-53
2021/08/25 00:35:46;;;;;;;12.82;8.45;;;15.10;93.30;;;;;;5077192;28;20056;-51
2021/08/25 00:38:11;;;;;;;12.75;8.95;;;15.10;93.20;;;;;;5095102;28;20035;-53
2021/08/25 00:40:37;;;;;;;12.80;8.50;;;15.20;93.20;;;;;;5094900;28;20454;-52
2021/08/25 00:43:07;;;;;;;13.73;8.25;;;15.30;93.20;;;;;;5077275;28;20032;-52
2021/08/25 00:45:36;;;;;;;11.43;7.15;;;15.20;93.30;;;;;;5095000;28;20388;-51
2021/08/25 00:48:02;;;;;;;10.07;6.85;;;15.20;93.40;;;;;;5095000;28;20066;-50
2021/08/25 00:50:28;;;;;;;9.52;7.18;;;15.20;93.40;;;;;;5077667;28;20391;-51
2021/08/25 00:52:54;;;;;;;9.98;6.75;;;15.20;93.40;;;;;;5094891;28;20028;-53
2021/08/25 00:55:19;;;;;;;12.43;6.95;;;15.10;93.40;;;;;;5094982;28;20028;-53
2021/08/25 00:57:45;;;;;;;12.82;6.95;;;15.10;93.30;;;;;;5096749;28;20081;-55
2021/08/25 01:00:12;;;;;;;8.20;6.25;;;15.10;93.30;;;;;;5096216;28;20024;-52
2021/08/25 01:02:51;;;;;;;9.65;6.53;;;15.10;93.30;;;;;;5095019;28;20089;-56
2021/08/25 01:05:17;;;;;;;9.45;6.28;;;15.10;93.40;;;;;;5096246;28;20032;-52
2021/08/25 01:07:44;;;;;;;9.73;6.80;;;15.10;93.60;;;;;;5094935;28;20536;-54
2021/08/25 01:10:31;;;;;;;8.18;6.05;;;15.10;93.50;;;;;;5095140;28;20024;-52
2021/08/25 01:13:04;;;;;;;9.30;6.47;;;15.10;93.40;;;;;;5094906;28;20480;-50
2021/08/25 01:15:35;;;;;;;9.45;5.75;;;15.00;93.60;;;;;;5076708;28;20384;-49
2021/08/25 01:18:03;;;;;;;10.25;6.15;;;15.00;93.50;;;;;;5094634;28;20032;-48
2021/08/25 01:20:29;;;;;;;6.97;5.75;;;15.00;93.70;;;;;;5094356;28;20080;-54
2021/08/25 01:22:59;;;;;;;7.60;5.53;;;15.00;93.80;;;;;;5095476;28;20111;-54
2021/08/25 01:25:28;;;;;;;9.93;5.72;;;15.10;94.10;;;;;;5093787;28;20564;-53
2021/08/25 01:27:58;;;;;;;7.55;6.18;;;15.10;93.80;;;;;;5057951;28;20020;-50
2021/08/25 01:30:26;;;;;;;6.82;5.55;;;15.10;93.80;;;;;;5094057;28;20028;-50
2021/08/25 01:32:52;;;;;;;9.48;6.30;;;15.00;94.00;;;;;;5093775;28;20067;-52
2021/08/25 01:35:18;;;;;;;9.05;6.45;;;15.00;94.30;;;;;;5093915;28;20433;-52
2021/08/25 01:37:45;;;;;;;10.52;6.50;;;14.90;94.20;;;;;;5076282;28;20028;-51
2021/08/25 01:40:11;;;;;;;7.78;5.60;;;14.80;94.40;;;;;;5094144;28;20042;-50
2021/08/25 01:42:36;;;;;;;9.15;5.63;;;14.90;94.40;;;;;;5093923;28;20390;-52
2021/08/25 01:45:03;;;;;;;8.80;6.85;;;14.90;94.50;;;;;;5093325;28;20028;-50
2021/08/25 01:47:29;;;;;;;8.32;5.95;;;14.90;94.30;;;;;;5093811;28;20047;-50
2021/08/25 01:49:55;;;;;;;9.00;5.97;;;14.80;94.40;;;;;;5094431;28;20059;-51
2021/08/25 01:52:21;;;;;;;7.13;5.70;;;14.80;94.50;;;;;;5093476;28;20028;-51
2021/08/25 01:54:49;;;;;;;9.93;5.97;;;14.80;94.30;;;;;;5094567;28;20103;-52
2021/08/25 01:57:15;;;;;;;9.05;6.13;;;14.80;94.10;;;;;;5093814;28;20116;-53
2021/08/25 01:59:40;;;;;;;8.55;5.35;;;14.70;93.90;;;;;;5094757;28;20074;-48
2021/08/25 02:02:06;;;;;;;8.77;5.93;;;14.60;93.80;;;;;;5075823;28;20089;-48
2021/08/25 02:04:32;;;;;;;10.55;6.85;;;14.60;93.80;;;;;;5092479;28;20039;-54
2021/08/25 02:06:58;;;;;;;9.57;6.53;;;14.60;93.50;;;;;;5091334;28;20114;-51
2021/08/25 02:09:23;;;;;;;9.15;6.00;;;14.40;93.90;;;;;;5092247;28;20112;-50
2021/08/25 02:11:49;;;;;;;7.38;6.50;;;14.40;93.90;;;;;;5092086;28;20043;-54
2021/08/25 02:14:16;;;;;;;9.50;6.15;;;14.40;94.00;;;;;;5092914;28;20456;-52
2021/08/25 02:16:41;;;;;;;7.97;5.88;;;14.30;94.30;;;;;;5094430;28;20016;-54
2021/08/25 02:19:07;;;;;;;8.20;5.75;;;14.30;94.50;;;;;;5093685;28;20115;-51
2021/08/25 02:21:33;;;;;;;12.38;6.35;;;14.50;94.60;;;;;;5108817;28;20039;-50
2021/08/25 02:23:59;;;;;;;9.05;6.18;;;14.50;94.50;;;;;;5094060;28;20035;-50
2021/08/25 02:26:25;;;;;;;9.52;5.70;;;14.40;94.50;;;;;;5093455;28;20391;-53
2021/08/25 02:28:52;;;;;;;8.73;6.20;;;14.30;94.50;;;;;;5093073;28;20063;-54
2021/08/25 02:31:18;;;;;;;8.85;6.50;;;14.30;94.40;;;;;;5092053;28;20035;-53
2021/08/25 02:33:44;;;;;;;10.60;6.43;;;14.20;94.50;;;;;;5092800;28;20507;-52
2021/08/25 02:36:11;;;;;;;7.53;6.07;;;14.00;94.90;;;;;;5092961;28;20035;-52
2021/08/25 02:38:37;;;;;;;8.80;6.60;;;13.90;95.10;;;;;;5093459;28;20020;-49
2021/08/25 02:41:05;;;;;;;8.50;5.95;;;13.90;95.30;;;;;;5093512;28;20062;-52
2021/08/25 02:43:31;;;;;;;9.10;5.85;;;13.90;95.00;;;;;;5093344;28;20154;-50
2021/08/25 02:45:56;;;;;;;8.70;6.00;;;13.90;95.20;;;;;;5093365;28;20123;-51
2021/08/25 02:48:22;;;;;;;10.35;6.20;;;13.90;95.20;;;;;;5093713;28;20036;-52
2021/08/25 02:50:48;;;;;;;7.30;5.90;;;13.90;95.20;;;;;;5092949;28;20585;-54
2021/08/25 02:53:14;;;;;;;9.35;5.75;;;13.90;95.20;;;;;;5092930;28;20024;-54
2021/08/25 02:55:39;;;;;;;9.05;6.82;;;13.90;95.50;;;;;;5093108;28;20439;-53
2021/08/25 02:58:05;;;;;;;9.20;6.05;;;13.90;95.40;;;;;;5108668;28;20032;-48
2021/08/25 03:00:30;;;;;;;8.88;6.22;;;13.90;95.60;;;;;;5092645;28;20074;-50
2021/08/25 03:02:56;;;;;;;9.15;5.93;;;13.90;95.70;;;;;;5108016;28;20499;-54
2021/08/25 03:05:21;;;;;;;10.20;6.07;;;14.00;95.70;;;;;;5096891;28;20043;-49
2021/08/25 03:07:47;;;;;;;8.23;6.45;;;14.00;95.20;;;;;;5097270;28;20036;-51
2021/08/25 03:10:12;;;;;;;9.30;6.90;;;14.00;94.70;;;;;;5097331;28;20028;-54
2021/08/25 03:12:38;;;;;;;11.88;6.28;;;14.00;94.80;;;;;;5097458;28;20488;-52
2021/08/25 03:15:06;;;;;;;13.30;7.38;;;13.90;94.70;;;;;;5096991;28;20558;-52
2021/08/25 03:17:32;;;;;;;7.88;5.55;;;13.50;95.40;;;;;;5096558;28;20387;-54
2021/08/25 03:19:58;;;;;;;10.20;6.68;;;13.60;95.70;;;;;;5096221;28;20475;-53
2021/08/25 03:22:24;;;;;;;9.50;6.57;;;13.60;95.50;;;;;;5096811;28;20044;-51
2021/08/25 03:24:49;;;;;;;10.32;6.85;;;13.60;95.50;;;;;;5096785;28;20579;-52
2021/08/25 03:27:15;;;;;;;9.57;5.90;;;13.60;95.10;;;;;;5096440;28;20032;-53
2021/08/25 03:29:41;;;;;;;9.77;6.50;;;13.60;95.40;;;;;;5097373;28;20510;-50
2021/08/25 03:32:07;;;;;;;10.35;7.25;;;13.60;95.30;;;;;;5096042;28;20510;-53
2021/08/25 03:34:32;;;;;;;11.98;6.88;;;13.60;95.30;;;;;;5096753;28;20016;-51
2021/08/25 03:36:58;;;;;;;10.52;7.13;;;13.60;95.20;;;;;;5096994;28;20119;-51
2021/08/25 03:39:24;;;;;;;10.75;7.25;;;13.50;95.20;;;;;;5098530;28;20057;-52
2021/08/25 03:41:49;;;;;;;15.57;7.72;;;13.50;95.30;;;;;;5098023;28;20078;-51
2021/08/25 03:44:15;;;;;;;10.75;6.63;;;13.30;95.60;;;;;;5096618;28;20697;-52
2021/08/25 03:46:40;;;;;;;12.70;7.43;;;13.40;95.70;;;;;;5096174;28;20028;-55
2021/08/25 03:49:06;;;;;;;9.95;6.47;;;13.30;95.70;;;;;;5096687;28;20032;-51
2021/08/25 03:51:31;;;;;;;13.18;7.85;;;13.30;95.70;;;;;;5096093;28;20097;-49
2021/08/25 03:53:57;;;;;;;12.38;8.05;;;13.40;95.60;;;;;;5095800;28;20050;-51
2021/08/25 03:56:23;;;;;;;14.45;8.63;;;13.30;95.60;;;;;;5096074;28;20028;-54
2021/08/25 03:58:48;;;;;;;13.57;7.60;;;13.20;95.50;;;;;;5096352;28;20408;-51
2021/08/25 04:01:14;;;;;;;12.95;8.55;;;13.30;95.50;;;;;;5096513;28;20024;-53
2021/08/25 04:03:39;;;;;;;11.70;8.35;;;13.00;96.10;;;;;;5096630;28;20067;-50
2021/08/25 04:06:05;;;;;;;11.52;7.88;;;13.10;95.80;;;;;;5096162;28;20488;-50
2021/08/25 04:08:30;;;;;;;57.15;33.42;;;13.10;95.90;;;;;;5096668;28;20036;-50
2021/08/25 04:10:57;;;;;;;13.98;9.95;;;13.20;96.00;;;;;;5096122;28;20028;-52
2021/08/25 04:13:22;;;;;;;13.02;8.52;;;13.20;95.70;;;;;;5096116;28;20028;-50
2021/08/25 04:15:48;;;;;;;10.45;7.50;;;13.10;95.70;;;;;;5094972;28;20108;-48
2021/08/25 04:18:14;;;;;;;13.02;8.48;;;13.10;95.80;;;;;;5095279;28;20027;-50
2021/08/25 04:20:39;;;;;;;13.57;8.15;;;12.90;96.00;;;;;;5096264;28;20042;-49
2021/08/25 04:23:05;;;;;;;11.93;7.93;;;12.90;96.10;;;;;;5094669;28;20039;-49
2021/08/25 04:25:30;;;;;;;11.23;8.70;;;12.90;96.00;;;;;;5096350;28;20024;-50
2021/08/25 04:27:56;;;;;;;11.90;8.35;;;13.00;95.90;;;;;;5095204;28;20020;-50
2021/08/25 04:30:22;;;;;;;16.08;7.70;;;13.10;95.90;;;;;;5095387;28;20404;-52
2021/08/25 04:32:48;;;;;;;11.65;7.47;;;12.90;96.10;;;;;;5077566;28;20564;-50
2021/08/25 04:35:13;;;;;;;10.98;7.88;;;12.90;96.10;;;;;;5095668;28;20036;-48
2021/08/25 04:37:39;;;;;;;10.63;7.15;;;12.90;96.40;;;;;;5095070;28;20404;-51
2021/08/25 04:40:05;;;;;;;10.00;7.40;;;12.90;96.30;;;;;;5096043;28;20032;-49
2021/08/25 04:42:31;;;;;;;11.70;7.43;;;13.00;95.80;;;;;;5095420;28;20032;-53
2021/08/25 04:44:57;;;;;;;11.02;8.15;;;12.90;96.20;;;;;;5096237;28;20024;-52
2021/08/25 04:47:23;;;;;;;11.82;7.50;;;12.70;96.90;;;;;;5095174;28;20392;-49
2021/08/25 04:49:48;;;;;;;10.90;7.25;;;12.70;96.80;;;;;;5095926;28;20115;-51
2021/08/25 04:52:14;;;;;;;12.55;8.40;;;12.90;96.40;;;;;;5073059;28;20117;-50
2021/08/25 04:54:40;;;;;;;13.35;8.05;;;13.00;96.30;;;;;;5075025;28;20411;-51
2021/08/25 04:57:05;;;;;;;10.90;7.65;;;13.10;96.30;;;;;;5076933;28;20089;-53
2021/08/25 04:59:31;;;;;;;13.13;8.30;;;13.20;95.60;;;;;;5077256;28;20047;-53
2021/08/25 05:01:57;;;;;;;11.82;7.63;;;13.30;95.30;;;;;;5075408;28;20044;-54
2021/08/25 05:04:22;;;;;;;11.38;7.63;;;13.20;95.10;;;;;;5076107;28;20103;-50
2021/08/25 05:06:48;;;;;;;9.15;6.75;;;13.20;95.50;;;;;;5075073;28;20036;-50
2021/08/25 05:09:13;;;;;;;11.93;8.02;;;13.30;95.20;;;;;;5074621;28;20052;-51
2021/08/25 05:11:39;;;;;;;10.30;7.47;;;13.20;95.30;;;;;;5074938;28;20031;-51
2021/08/25 05:14:04;;;;;;;9.68;7.90;;;13.10;95.70;;;;;;5074643;28;20389;-52
2021/08/25 05:16:30;;;;;;;12.77;9.05;;;13.10;95.90;;;;;;5092765;28;20380;-51
2021/08/25 05:18:56;;;;;;;11.38;7.00;;;13.10;95.50;;;;;;5095196;28;20033;-50
2021/08/25 05:21:22;;;;;;;11.70;7.32;;;13.30;95.20;;;;;;5095003;28;20093;-51
2021/08/25 05:23:48;;;;;;;10.93;7.72;;;13.20;95.40;;;;;;5094448;28;20488;-52
2021/08/25 05:26:14;;;;;;;13.70;8.38;;;13.30;95.30;;;;;;5094563;28;20035;-54
2021/08/25 05:28:39;;;;;;;11.02;7.53;;;13.20;95.10;;;;;;5095094;28;20078;-53
2021/08/25 05:31:05;;;;;;;11.05;7.20;;;13.30;95.30;;;;;;5094225;28;20055;-52
2021/08/25 05:33:30;;;;;;;9.75;7.25;;;13.30;95.20;;;;;;5094466;28;20395;-51
2021/08/25 05:35:58;;;;;;;13.05;7.65;;;13.10;95.60;;;;;;5094170;28;20027;-50
2021/08/25 05:38:23;;;;;;;12.68;7.47;;;13.30;95.50;;;;;;5094681;28;20468;-50
2021/08/25 05:40:49;;;;;;;14.65;10.18;;;13.50;95.20;;;;;;5094029;28;20067;-50
2021/08/25 05:43:17;;;;;;;13.05;7.55;;;13.50;95.00;;;;;;5094088;28;20028;-56
2021/08/25 05:45:42;;;;;;;11.38;7.43;;;13.50;95.10;;;;;;5093988;28;20032;-49
2021/08/25 05:48:08;;;;;;;9.63;7.10;;;13.60;94.90;;;;;;5094473;28;20028;-50
2021/08/25 05:50:33;;;;;;;10.93;7.22;;;13.70;94.90;;;;;;5093353;28;20116;-55
2021/08/25 05:52:59;;;;;;;11.48;7.60;;;13.80;94.70;;;;;;5093179;28;20024;-56
2021/08/25 05:55:25;;;;;;;9.65;7.35;;;13.70;95.00;;;;;;5093873;28;20032;-52
2021/08/25 05:57:50;;;;;;;11.52;7.47;;;13.90;94.50;;;;;;5094098;28;20062;-52
2021/08/25 06:00:18;;;;;;;10.07;6.97;;;13.90;94.60;;;;;;5095722;28;20111;-52
2021/08/25 06:02:43;;;;;;;21.42;14.48;;;14.00;94.20;;;;;;5093858;28;20043;-51
2021/08/25 06:05:11;;;;;;;12.90;8.55;;;13.80;94.80;;;;;;5093414;28;20028;-54
2021/08/25 06:07:36;;;;;;;13.15;7.63;;;13.90;94.70;;;;;;5093369;28;20040;-50
2021/08/25 06:10:03;;;;;;;10.45;7.25;;;14.10;94.50;;;;;;5094044;28;20035;-54
2021/08/25 06:12:29;;;;;;;10.50;7.70;;;14.10;94.40;;;;;;5093524;28;20089;-49
2021/08/25 06:14:54;;;;;;;11.02;7.57;;;14.10;94.30;;;;;;5093946;28;20040;-54
2021/08/25 06:17:20;;;;;;;12.95;6.90;;;14.20;94.00;;;;;;5093207;28;20032;-51
2021/08/25 06:19:46;;;;;;;11.25;7.35;;;14.00;94.40;;;;;;5094605;28;20020;-53
2021/08/25 06:22:12;;;;;;;9.73;6.90;;;14.40;94.10;;;;;;5095415;28;20467;-50
2021/08/25 06:24:37;;;;;;;9.50;7.07;;;14.30;94.10;;;;;;5093889;28;20039;-52
2021/08/25 06:27:04;;;;;;;10.07;7.38;;;14.50;93.60;;;;;;5093538;28;20085;-53
2021/08/25 06:29:29;;;;;;;9.75;6.88;;;14.50;93.30;;;;;;5093398;28;20031;-54
2021/08/25 06:31:55;;;;;;;8.73;6.47;;;14.60;93.30;;;;;;5092758;28;20507;-54
2021/08/25 06:34:21;;;;;;;9.95;6.93;;;14.60;93.70;;;;;;5093050;28;20024;-52
2021/08/25 06:36:46;;;;;;;9.35;6.43;;;14.50;93.80;;;;;;5092556;28;20051;-51
2021/08/25 06:39:12;;;;;;;11.98;6.97;;;14.60;93.60;;;;;;5091977;28;20038;-53
2021/08/25 06:41:38;;;;;;;8.88;6.28;;;14.80;93.10;;;;;;5092413;28;20032;-55
2021/08/25 06:44:04;;;;;;;9.55;6.35;;;14.90;92.80;;;;;;5093258;28;20021;-49
2021/08/25 06:46:29;;;;;;;9.57;6.32;;;15.10;92.80;;;;;;5075057;28;20028;-52
2021/08/25 06:48:55;;;;;;;11.05;7.00;;;15.20;92.90;;;;;;5093129;28;20032;-53
2021/08/25 06:51:21;;;;;;;10.80;6.30;;;15.30;92.60;;;;;;5093741;28;20028;-53
2021/08/25 06:53:46;;;;;;;9.75;6.70;;;15.00;92.90;;;;;;5093374;28;20020;-50
2021/08/25 06:56:12;;;;;;;10.65;6.32;;;15.20;92.60;;;;;;5093486;28;20024;-52
2021/08/25 06:58:38;;;;;;;7.10;5.53;;;15.30;92.80;;;;;;5093064;28;20024;-53
2021/08/25 07:01:03;;;;;;;8.70;6.45;;;15.30;92.80;;;;;;5093153;28;20031;-50
2021/08/25 07:03:29;;;;;;;10.68;6.82;;;15.50;92.60;;;;;;5092609;28;20024;-52
2021/08/25 07:05:55;;;;;;;9.85;6.32;;;15.60;92.50;;;;;;5093009;28;20056;-53
2021/08/25 07:08:20;;;;;;;10.55;6.43;;;15.80;92.30;;;;;;5093324;28;20039;-54
2021/08/25 07:10:46;;;;;;;12.27;6.18;;;15.90;92.10;;;;;;5093058;28;20036;-51
2021/08/25 07:13:12;;;;;;;9.45;6.85;;;16.00;92.10;;;;;;5092901;28;20074;-51
2021/08/25 07:15:37;;;;;;;10.70;7.35;;;16.10;91.90;;;;;;5093313;28;20107;-53
2021/08/25 07:18:03;;;;;;;9.43;6.53;;;16.10;91.80;;;;;;5075252;28;20028;-53
2021/08/25 07:20:29;;;;;;;8.88;6.47;;;16.20;91.50;;;;;;5092298;28;20048;-54
2021/08/25 07:22:55;;;;;;;9.05;6.18;;;16.30;91.40;;;;;;5089106;28;20027;-52
2021/08/25 07:25:20;;;;;;;8.25;5.80;;;16.40;91.00;;;;;;5091094;28;20065;-57
2021/08/25 07:27:46;;;;;;;10.75;7.05;;;16.20;91.40;;;;;;5091095;28;20486;-51
2021/08/25 07:30:13;;;;;;;10.02;6.43;;;16.30;91.30;;;;;;5091013;28;20032;-57
2021/08/25 07:32:40;;;;;;;11.77;5.25;;;16.50;91.00;;;;;;5073719;28;20027;-54
2021/08/25 07:35:07;;;;;;;8.73;6.10;;;16.60;91.00;;;;;;5091602;28;20028;-52
2021/08/25 07:37:33;;;;;;;10.40;6.00;;;16.40;91.10;;;;;;5091541;28;20489;-51
2021/08/25 07:39:59;;;;;;;10.73;6.68;;;16.50;91.10;;;;;;5092620;28;20028;-52
2021/08/25 07:42:24;;;;;;;8.25;5.97;;;16.40;91.20;;;;;;5093565;28;20435;-53
2021/08/25 07:44:50;;;;;;;7.70;5.47;;;16.40;91.40;;;;;;5075666;28;20100;-54
2021/08/25 07:47:15;;;;;;;9.43;6.00;;;16.60;91.10;;;;;;5092591;28;20043;-51
2021/08/25 07:49:44;;;;;;;9.20;6.10;;;16.70;91.20;;;;;;5092877;28;20040;-62
2021/08/25 07:52:10;;;;;;;10.88;6.15;;;16.90;90.90;;;;;;5074533;28;20021;-54
2021/08/25 07:54:37;;;;;;;9.13;6.07;;;16.90;91.10;;;;;;5074925;28;20043;-55
2021/08/25 07:57:02;;;;;;;10.25;5.40;;;17.10;91.00;;;;;;5075567;28;20074;-53
2021/08/25 07:59:28;;;;;;;8.82;5.80;;;17.30;90.50;;;;;;5076211;28;20087;-55
2021/08/25 08:01:53;;;;;;;9.88;5.43;;;17.20;90.30;;;;;;5075661;28;20047;-54
2021/08/25 08:04:19;;;;;;;7.78;5.70;;;17.20;90.30;;;;;;5076461;28;20033;-53
2021/08/25 08:06:45;;;;;;;9.25;6.28;;;16.80;91.30;;;;;;5076641;28;20029;-54
2021/08/25 08:09:10;;;;;;;7.68;5.45;;;17.00;91.00;;;;;;5096338;28;20392;-55
2021/08/25 08:11:36;;;;;;;9.80;5.97;;;17.00;91.20;;;;;;5095960;28;20036;-54
2021/08/25 08:14:01;;;;;;;8.13;5.78;;;17.30;90.70;;;;;;5095599;28;20051;-51
2021/08/25 08:16:27;;;;;;;8.85;6.13;;;17.40;90.60;;;;;;5094550;28;20074;-53
2021/08/25 08:19:02;;;;;;;10.15;5.30;;;17.60;90.10;;;;;;5094570;28;20092;-54
2021/08/25 08:21:31;;;;;;;9.65;5.72;;;17.80;89.60;;;;;;5091151;28;20059;-52
2021/08/25 08:23:58;;;;;;;8.25;5.40;;;17.80;90.10;;;;;;5089346;28;20090;-52
2021/08/25 08:26:28;;;;;;;7.47;5.53;;;18.00;90.00;;;;;;5094576;28;20114;-48
2021/08/25 08:28:55;;;;;;;11.50;5.72;;;17.90;90.20;;;;;;5060791;28;20531;-52
2021/08/25 08:31:21;;;;;;;7.75;5.68;;;18.00;89.90;;;;;;5094998;28;20063;-49
2021/08/25 08:33:47;;;;;;;7.82;5.68;;;18.10;89.30;;;;;;5095398;28;20032;-55
2021/08/25 08:36:12;;;;;;;10.30;5.68;;;18.00;89.90;;;;;;5096105;28;20544;-56
2021/08/25 08:38:38;;;;;;;6.75;5.28;;;18.00;90.20;;;;;;5095557;28;20043;-51
2021/08/25 08:41:03;;;;;;;10.05;5.57;;;18.30;88.70;;;;;;5077518;28;20040;-52
2021/08/25 08:43:30;;;;;;;12.52;5.60;;;18.10;87.60;;;;;;5095631;28;20051;-56
2021/08/25 08:45:55;;;;;;;9.05;5.72;;;18.30;87.60;;;;;;5077363;28;20036;-56
2021/08/25 08:48:23;;;;;;;7.68;5.50;;;18.30;87.00;;;;;;5077242;28;20047;-53
2021/08/25 08:50:49;;;;;;;8.10;5.55;;;18.50;87.40;;;;;;5095389;28;20714;-55
2021/08/25 08:53:19;;;;;;;8.57;5.75;;;18.60;86.50;;;;;;5095086;28;20042;-51
2021/08/25 08:55:45;;;;;;;9.40;5.82;;;18.50;87.40;;;;;;5095329;28;20161;-55
2021/08/25 08:58:11;;;;;;;8.90;5.15;;;18.70;85.80;;;;;;5094935;28;20387;-54
2021/08/25 09:00:39;;;;;;;7.45;5.05;;;18.90;84.40;;;;;;5095110;28;20469;-50
2021/08/25 09:03:18;;;;;;;7.25;4.85;;;19.10;83.70;;;;;;5093801;28;20051;-53
2021/08/25 09:05:44;;;;;;;8.45;5.50;;;18.70;82.90;;;;;;5093729;28;20028;-52
2021/08/25 09:08:09;;;;;;;9.00;5.53;;;18.70;82.50;;;;;;5086554;28;20036;-53
2021/08/25 09:10:37;;;;;;;8.65;5.10;;;18.80;81.60;;;;;;5082006;28;20028;-54
2021/08/25 09:13:10;;;;;;;8.45;5.15;;;18.80;82.40;;;;;;5094906;28;20679;-48
2021/08/25 09:15:42;;;;;;;6.88;5.13;;;18.90;81.50;;;;;;5080758;28;20028;-55
2021/08/25 09:18:13;;;;;;;7.13;4.63;;;18.60;82.30;;;;;;5074734;28;20634;-52
2021/08/25 09:20:41;;;;;;;7.53;4.47;;;18.50;81.90;;;;;;5088997;28;20040;-53
2021/08/25 09:23:24;;;;;;;8.15;5.10;;;18.50;81.40;;;;;;5094979;28;20107;-49
2021/08/25 09:25:54;;;;;;;7.70;5.47;;;18.60;81.60;;;;;;5094767;28;20036;-51
2021/08/25 09:28:33;;;;;;;8.35;5.53;;;18.60;82.00;;;;;;5076348;28;20085;-50
2021/08/25 09:31:02;;;;;;;6.38;4.72;;;18.70;80.90;;;;;;5095312;28;20445;-51
2021/08/25 09:33:33;;;;;;;8.15;4.60;;;18.80;79.20;;;;;;5094757;28;20034;-53
2021/08/25 09:36:02;;;;;;;7.82;5.07;;;19.10;80.50;;;;;;5094518;28;20036;-55
2021/08/25 09:38:30;;;;;;;10.27;5.30;;;19.20;80.80;;;;;;5095250;28;20039;-50
2021/08/25 09:41:08;;;;;;;7.47;4.70;;;19.40;79.40;;;;;;5093283;28;20420;-52
2021/08/25 09:43:42;;;;;;;6.95;4.75;;;19.20;79.10;;;;;;5093979;28;20074;-50
2021/08/25 09:46:21;;;;;;;7.38;4.80;;;19.20;79.30;;;;;;5094082;28;20055;-52
2021/08/25 09:48:58;;;;;;;12.38;5.22;;;19.10;81.50;;;;;;5095353;28;20039;-53
2021/08/25 09:51:38;;;;;;;8.75;5.43;;;19.20;81.60;;;;;;5092615;28;20089;-53
2021/08/25 09:54:06;;;;;;;10.68;6.20;;;19.50;80.70;;;;;;5071359;28;20404;-54
2021/08/25 09:56:34;;;;;;;6.47;4.72;;;19.60;81.10;;;;;;5073833;28;20581;-49
2021/08/25 09:59:02;;;;;;;7.32;5.00;;;19.70;81.00;;;;;;5078412;28;20031;-52
2021/08/25 10:01:28;;;;;;;6.82;4.90;;;19.60;81.00;;;;;;5095000;28;20110;-54
2021/08/25 10:03:54;;;;;;;5.68;4.90;;;19.20;83.00;;;;;;5094112;28;20088;-56
2021/08/25 10:06:23;;;;;;;7.50;5.38;;;19.40;82.30;;;;;;5094004;28;20035;-52
2021/08/25 10:08:49;;;;;;;9.32;5.60;;;19.20;82.40;;;;;;5093042;28;20703;-51
2021/08/25 10:11:17;;;;;;;9.77;5.05;;;19.10;83.00;;;;;;5094788;28;20070;-50
2021/08/25 10:13:43;;;;;;;5.50;4.65;;;19.20;82.60;;;;;;5093364;28;20464;-52
2021/08/25 10:16:11;;;;;;;6.93;5.10;;;19.40;82.50;;;;;;5091788;28;20039;-52
2021/08/25 10:18:37;;;;;;;9.07;5.63;;;19.60;80.90;;;;;;5085217;28;20374;-52
2021/08/25 10:21:23;;;;;;;8.70;4.93;;;19.70;80.70;;;;;;5092001;28;20467;-52
2021/08/25 10:24:00;;;;;;;7.72;4.88;;;19.90;81.20;;;;;;5095378;28;20032;-52
2021/08/25 10:26:26;;;;;;;5.90;4.82;;;20.20;80.70;;;;;;5077365;28;20047;-54
2021/08/25 10:29:03;;;;;;;7.85;4.90;;;20.20;80.10;;;;;;5072417;28;20488;-49
2021/08/25 10:31:51;;;;;;;6.90;5.20;;;20.00;81.50;;;;;;5072217;28;20416;-52
2021/08/25 10:34:23;;;;;;;7.47;4.80;;;20.20;80.70;;;;;;5082521;28;20131;-52
2021/08/25 10:36:49;;;;;;;6.43;4.80;;;20.20;80.30;;;;;;5074232;28;20027;-53
2021/08/25 10:39:30;;;;;;;7.55;4.85;;;20.30;80.50;;;;;;5075697;28;20442;-53
2021/08/25 10:41:56;;;;;;;6.10;4.70;;;20.50;79.40;;;;;;5093117;28;20036;-53
2021/08/25 10:44:54;;;;;;;8.25;5.22;;;20.40;79.40;;;;;;5093313;28;20048;-49
2021/08/25 10:47:57;;;;;;;8.25;4.63;;;20.50;79.00;;;;;;5058645;28;20495;-54
2021/08/25 10:50:23;;;;;;;7.43;5.03;;;20.60;79.40;;;;;;5092084;28;20050;-49
2021/08/25 10:52:48;;;;;;;7.03;4.93;;;20.50;77.30;;;;;;5083319;28;20035;-54
2021/08/25 10:55:14;;;;;;;6.20;4.60;;;20.30;77.40;;;;;;5093231;28;20047;-51
2021/08/25 10:57:44;;;;;;;7.22;5.47;;;20.40;77.50;;;;;;5092998;28;20027;-50
2021/08/25 11:00:12;;;;;;;7.78;4.47;;;20.20;77.50;;;;;;5093756;28;20161;-52
2021/08/25 11:02:40;;;;;;;6.88;4.82;;;19.90;78.70;;;;;;5093852;28;20036;-52
2021/08/25 11:05:07;;;;;;;6.35;4.53;;;19.80;78.50;;;;;;5093424;28;20031;-50
2021/08/25 11:07:42;;;;;;;8.88;4.68;;;20.00;77.30;;;;;;5093125;28;20135;-53
2021/08/25 11:10:08;;;;;;;5.82;4.40;;;19.90;76.80;;;;;;5093173;28;20824;-50
2021/08/25 11:12:34;;;;;;;8.13;4.70;;;19.90;77.40;;;;;;5092947;28;20104;-53
2021/08/25 11:14:59;;;;;;;7.97;4.78;;;19.70;77.90;;;;;;5094016;28;20033;-54
2021/08/25 11:17:27;;;;;;;5.25;4.28;;;19.80;77.60;;;;;;5093212;28;20503;-49
2021/08/25 11:19:52;;;;;;;6.25;4.78;;;19.80;77.20;;;;;;5093383;28;20026;-54
2021/08/25 11:22:40;;;;;;;6.30;5.03;;;19.90;77.60;;;;;;5093461;28;20040;-53
2021/08/25 11:25:16;;;;;;;7.32;4.15;;;20.10;77.70;;;;;;5089297;28;20052;-53
2021/08/25 11:27:47;;;;;;;6.15;4.07;;;20.20;77.00;;;;;;5085723;28;20036;-50
2021/08/25 11:30:14;;;;;;;6.18;4.38;;;20.20;78.00;;;;;;5091571;28;20052;-53
2021/08/25 11:32:46;;;;;;;6.20;4.25;;;20.20;76.30;;;;;;5097091;28;20039;-54
2021/08/25 11:35:20;;;;;;;8.20;4.70;;;20.00;76.70;;;;;;5077009;28;20108;-54
2021/08/25 11:37:45;;;;;;;7.78;4.80;;;20.00;76.20;;;;;;5076803;28;20033;-54
2021/08/25 11:40:12;;;;;;;7.47;4.47;;;20.10;75.20;;;;;;5076578;28;20341;-55
2021/08/25 11:42:37;;;;;;;6.00;4.72;;;20.10;75.80;;;;;;5094092;28;20040;-52
2021/08/25 11:45:39;;;;;;;7.40;4.40;;;20.30;75.80;;;;;;5096385;28;20206;-49
2021/08/25 11:48:08;;;;;;;5.63;4.53;;;20.20;74.70;;;;;;5035520;28;20048;-53
2021/08/25 11:50:37;;;;;;;8.88;4.63;;;20.10;75.00;;;;;;5086650;28;20043;-54
2021/08/25 11:53:11;;;;;;;5.90;4.50;;;20.20;75.60;;;;;;5096092;28;20024;-53
2021/08/25 11:55:37;;;;;;;6.45;4.70;;;20.10;76.10;;;;;;5097475;28;20028;-53
2021/08/25 11:58:02;;;;;;;5.47;4.45;;;20.20;76.20;;;;;;5096850;28;20081;-54
2021/08/25 12:00:40;;;;;;;6.75;4.53;;;20.20;76.70;;;;;;5097506;28;20042;-53
2021/08/25 12:03:07;;;;;;;6.07;4.65;;;20.40;76.20;;;;;;5098594;28;20036;-56
2021/08/25 12:05:37;;;;;;;7.78;4.38;;;20.50;75.70;;;;;;5098165;28;20101;-52
2021/08/25 12:08:09;;;;;;;6.43;5.00;;;20.40;76.50;;;;;;5062971;28;20391;-54
2021/08/25 12:10:44;;;;;;;7.85;4.70;;;20.40;75.70;;;;;;5097409;28;20036;-54
2021/08/25 12:13:30;;;;;;;6.35;4.55;;;20.20;76.50;;;;;;5097235;28;20036;-55
2021/08/25 12:15:57;;;;;;;7.20;4.85;;;20.30;77.00;;;;;;5096254;28;20048;-52
2021/08/25 12:18:24;;;;;;;8.57;4.70;;;20.10;76.90;;;;;;5111733;28;20036;-56
2021/08/25 12:21:07;;;;;;;8.10;4.75;;;20.10;76.30;;;;;;5094032;28;20036;-52
2021/08/25 12:23:32;;;;;;;9.07;5.05;;;20.20;77.10;;;;;;5095524;28;20042;-50
2021/08/25 12:25:58;;;;;;;7.97;4.88;;;20.50;77.90;;;;;;5096395;28;20036;-53
2021/08/25 12:28:37;;;;;;;8.10;4.97;;;20.60;79.00;;;;;;5078347;28;20403;-51
2021/08/25 12:31:09;;;;;;;8.80;5.53;;;20.70;77.50;;;;;;5096353;28;20036;-64
2021/08/25 12:33:34;;;;;;;8.63;5.25;;;20.60;78.40;;;;;;5077302;28;20020;-52
2021/08/25 12:36:28;;;;;;;9.55;5.53;;;20.80;78.80;;;;;;5095509;28;20063;-57
2021/08/25 12:39:10;;;;;;;7.80;5.13;;;21.10;77.50;;;;;;5095308;28;20123;-53
2021/08/25 12:41:38;;;;;;;7.55;5.28;;;20.90;77.10;;;;;;5095015;28;20467;-52
2021/08/25 12:44:05;;;;;;;8.77;5.53;;;20.90;76.80;;;;;;5093124;28;20032;-51
2021/08/25 12:46:31;;;;;;;7.13;5.80;;;21.00;77.00;;;;;;5093242;28;20035;-53